createdAt,value
2019-04-26T00:00:10.099Z,12.90
2019-04-26T00:02:41.642Z,12.90
2019-04-26T00:05:09.408Z,13.00
2019-04-26T00:07:37.044Z,12.90
2019-04-26T00:10:08.087Z,12.90
2019-04-26T00:12:42.799Z,12.90
2019-04-26T00:15:12.175Z,12.90
2019-04-26T00:17:41.060Z,12.70
2019-04-26T00:20:08.056Z,12.90
2019-04-26T00:22:34.748Z,12.90
2019-04-26T00:25:01.400Z,12.50
2019-04-26T00:27:27.987Z,12.40
2019-04-26T00:29:54.448Z,12.40
2019-04-26T00:32:21.396Z,12.80
2019-04-26T00:34:48.284Z,12.40
2019-04-26T00:37:15.863Z,12.40
2019-04-26T00:39:42.424Z,12.90
2019-04-26T00:42:09.526Z,12.80
2019-04-26T00:44:36.660Z,12.90
2019-04-26T00:47:04.525Z,12.80
2019-04-26T00:49:42.925Z,12.70
2019-04-26T00:52:01.359Z,12.90
2019-04-26T00:54:28.115Z,12.80
2019-04-26T00:56:55.004Z,12.80
2019-04-26T00:59:22.619Z,12.80
2019-04-26T01:01:51.238Z,12.60
2019-04-26T01:04:18.831Z,12.50
2019-04-26T01:06:47.581Z,12.40
2019-04-26T01:09:15.926Z,12.30
2019-04-26T01:11:42.516Z,12.50
2019-04-26T01:14:09.006Z,12.60
2019-04-26T01:16:35.551Z,12.60
2019-04-26T01:19:02.737Z,12.80
2019-04-26T01:21:36.055Z,12.80
2019-04-26T01:24:03.473Z,12.40
2019-04-26T01:26:32.143Z,12.60
2019-04-26T01:29:10.441Z,12.80
2019-04-26T01:31:40.704Z,12.80
2019-04-26T01:34:07.392Z,12.50
2019-04-26T01:36:35.240Z,12.40
2019-04-26T01:39:07.324Z,12.20
2019-04-26T01:41:37.198Z,12.60
2019-04-26T01:44:08.872Z,12.60
2019-04-26T01:46:44.979Z,12.50
2019-04-26T01:49:13.476Z,12.60
2019-04-26T01:51:46.474Z,12.60
2019-04-26T01:54:16.860Z,12.60
2019-04-26T01:56:44.248Z,12.50
2019-04-26T01:59:14.023Z,12.50
2019-04-26T02:01:43.089Z,12.50
2019-04-26T02:04:10.168Z,12.30
2019-04-26T02:06:36.819Z,12.50
2019-04-26T02:09:07.013Z,12.50
2019-04-26T02:11:33.781Z,12.60
2019-04-26T02:14:00.649Z,12.50
2019-04-26T02:16:27.224Z,12.50
2019-04-26T02:18:53.901Z,12.00
2019-04-26T02:21:23.636Z,11.80
2019-04-26T02:24:02.612Z,11.80
2019-04-26T02:26:42.991Z,11.50
2019-04-26T02:29:13.280Z,11.80
2019-04-26T02:31:42.535Z,11.70
2019-04-26T02:34:09.918Z,11.60
2019-04-26T02:36:55.246Z,11.50
2019-04-26T02:39:17.983Z,11.70
2019-04-26T02:41:46.648Z,11.50
2019-04-26T02:44:16.025Z,11.60
2019-04-26T02:46:53.240Z,11.70
2019-04-26T02:49:22.425Z,11.10
2019-04-26T02:52:01.941Z,11.00
2019-04-26T02:54:44.018Z,11.00
2019-04-26T02:57:13.093Z,11.20
2019-04-26T02:59:42.649Z,11.10
2019-04-26T03:02:12.941Z,11.40
2019-04-26T03:04:43.114Z,11.60
2019-04-26T03:07:13.417Z,11.40
2019-04-26T03:09:43.240Z,11.40
2019-04-26T03:12:13.764Z,11.20
2019-04-26T03:15:12.159Z,11.30
2019-04-26T03:17:30.739Z,11.00
2019-04-26T03:20:22.288Z,11.10
2019-04-26T03:23:01.680Z,11.10
2019-04-26T03:25:33.341Z,11.20
2019-04-26T03:28:10.578Z,11.10
2019-04-26T03:30:55.601Z,11.30
2019-04-26T03:33:58.108Z,11.00
2019-04-26T03:36:37.088Z,11.30
2019-04-26T03:39:15.991Z,11.10
2019-04-26T03:42:06.096Z,11.00
2019-04-26T03:44:54.165Z,11.10
2019-04-26T03:47:24.535Z,11.00
2019-04-26T03:49:54.996Z,10.90
2019-04-26T03:52:52.640Z,11.10
2019-04-26T03:55:28.290Z,11.00
2019-04-26T03:58:06.600Z,11.00
2019-04-26T04:00:39.328Z,11.00
2019-04-26T04:03:15.088Z,11.00
2019-04-26T04:06:08.334Z,11.10
2019-04-26T04:08:46.017Z,11.70
2019-04-26T04:11:25.812Z,11.50
2019-04-26T04:14:05.005Z,11.40
2019-04-26T04:16:54.111Z,11.40
2019-04-26T04:19:29.057Z,11.30
2019-04-26T04:22:04.826Z,11.30
2019-04-26T04:24:35.099Z,11.50
2019-04-26T04:27:08.645Z,11.40
2019-04-26T04:29:48.536Z,11.60
2019-04-26T04:32:39.681Z,11.00
2019-04-26T04:35:10.280Z,11.10
2019-04-26T04:38:02.215Z,11.00
2019-04-26T04:40:35.776Z,11.40
2019-04-26T04:43:13.687Z,11.60
2019-04-26T04:46:15.703Z,11.50
2019-04-26T04:49:03.092Z,11.60
2019-04-26T04:52:02.242Z,11.40
2019-04-26T04:55:01.737Z,11.00
2019-04-26T04:57:19.584Z,11.50
2019-04-26T04:59:58.640Z,11.70
2019-04-26T05:02:54.745Z,11.40
2019-04-26T05:05:39.124Z,11.60
2019-04-26T05:08:18.656Z,11.40
2019-04-26T05:10:49.844Z,11.50
2019-04-26T05:13:25.680Z,11.60
2019-04-26T05:16:40.715Z,11.30
2019-04-26T05:19:26.713Z,11.50
2019-04-26T05:22:16.832Z,11.00
2019-04-26T05:24:53.262Z,11.30
2019-04-26T05:27:25.571Z,11.00
2019-04-26T05:30:01.207Z,11.60
2019-04-26T05:33:04.550Z,11.50
2019-04-26T05:35:53.337Z,11.10
2019-04-26T05:38:38.861Z,11.00
2019-04-26T05:41:26.571Z,11.70
2019-04-26T05:44:21.141Z,11.40
2019-04-26T05:47:28.154Z,11.70
2019-04-26T05:50:31.655Z,11.60
2019-04-26T05:53:26.292Z,11.40
2019-04-26T05:56:40.894Z,11.40
2019-04-26T05:59:22.492Z,11.50
2019-04-26T06:02:09.387Z,11.80
2019-04-26T06:04:53.567Z,12.00
2019-04-26T06:08:03.001Z,11.50
2019-04-26T06:10:44.239Z,12.00
2019-04-26T06:13:43.567Z,11.60
2019-04-26T06:16:34.294Z,12.00
2019-04-26T06:19:17.671Z,11.80
2019-04-26T06:22:04.596Z,11.50
2019-04-26T06:24:37.781Z,12.00
2019-04-26T06:27:22.359Z,11.80
2019-04-26T06:30:01.469Z,11.60
2019-04-26T06:32:56.207Z,11.40
2019-04-26T06:35:25.339Z,11.60
2019-04-26T06:38:43.301Z,11.40
2019-04-26T06:41:21.983Z,11.40
2019-04-26T06:43:55.142Z,11.60
2019-04-26T06:46:47.486Z,11.90
2019-04-26T06:49:22.368Z,12.00
2019-04-26T06:51:52.637Z,11.90
2019-04-26T06:54:41.123Z,12.10
2019-04-26T06:57:59.395Z,12.20
2019-04-26T07:00:37.072Z,12.10
2019-04-26T07:03:16.675Z,12.40
2019-04-26T07:05:46.827Z,12.30
2019-04-26T07:08:29.360Z,12.50
2019-04-26T07:11:24.208Z,12.60
2019-04-26T07:14:11.542Z,12.40
2019-04-26T07:16:44.827Z,12.50
2019-04-26T07:19:40.813Z,12.60
2019-04-26T07:22:15.980Z,12.40
2019-04-26T07:25:08.947Z,12.40
2019-04-26T07:27:39.707Z,12.30
2019-04-26T07:30:13.017Z,12.50
2019-04-26T07:32:52.424Z,12.60
2019-04-26T07:35:43.245Z,12.40
2019-04-26T07:38:27.127Z,12.50
2019-04-26T07:41:31.079Z,12.50
2019-04-26T07:44:15.255Z,12.90
2019-04-26T07:47:03.110Z,12.60
2019-04-26T07:49:49.272Z,12.70
2019-04-26T07:52:28.521Z,12.90
2019-04-26T07:55:08.663Z,12.80
2019-04-26T07:57:47.684Z,13.00
2019-04-26T08:00:17.766Z,13.00
2019-04-26T08:02:55.858Z,13.00
2019-04-26T08:05:40.150Z,13.40
2019-04-26T08:08:10.863Z,13.40
2019-04-26T08:10:39.601Z,13.30
2019-04-26T08:13:10.106Z,13.40
2019-04-26T08:15:45.289Z,13.40
2019-04-26T08:18:19.884Z,13.20
2019-04-26T08:20:50.462Z,13.40
2019-04-26T08:23:38.132Z,13.30
2019-04-26T08:25:52.923Z,13.70
2019-04-26T08:28:21.990Z,13.50
2019-04-26T08:30:50.292Z,13.40
2019-04-26T08:33:22.641Z,13.80
2019-04-26T08:35:53.376Z,13.80
2019-04-26T08:38:22.809Z,13.80
2019-04-26T08:40:50.619Z,13.30
2019-04-26T08:43:23.084Z,13.40
2019-04-26T08:46:13.099Z,13.40
2019-04-26T08:48:58.092Z,13.40
2019-04-26T08:51:26.620Z,13.30
2019-04-26T08:53:56.009Z,13.30
2019-04-26T08:56:35.428Z,13.20
2019-04-26T08:59:30.138Z,13.30
2019-04-26T09:02:17.447Z,13.40
2019-04-26T09:05:04.661Z,13.40
2019-04-26T09:07:36.422Z,13.80
2019-04-26T09:10:11.166Z,13.70
2019-04-26T09:12:36.861Z,13.80
2019-04-26T09:15:08.317Z,13.90
2019-04-26T09:17:34.877Z,14.40
2019-04-26T09:20:06.974Z,13.80
2019-04-26T09:22:46.926Z,13.70
2019-04-26T09:25:30.220Z,14.00
2019-04-26T09:28:00.705Z,13.70
2019-04-26T09:30:34.307Z,13.40
2019-04-26T09:33:05.448Z,13.50
2019-04-26T09:35:32.525Z,13.70
2019-04-26T09:37:59.469Z,13.80
2019-04-26T09:40:26.033Z,13.80
2019-04-26T09:42:56.937Z,14.00
2019-04-26T09:45:28.346Z,13.90
2019-04-26T09:47:59.459Z,14.30
2019-04-26T09:53:26.191Z,14.40
2019-04-26T09:55:52.665Z,14.30
2019-04-26T09:58:19.365Z,13.90
2019-04-26T10:00:48.679Z,13.80
2019-04-26T10:03:14.917Z,13.80
2019-04-26T10:05:41.367Z,13.40
2019-04-26T10:08:28.072Z,13.90
2019-04-26T10:10:55.188Z,14.40
2019-04-26T10:13:23.677Z,14.60
2019-04-26T10:16:08.568Z,14.30
2019-04-26T10:18:36.146Z,14.20
2019-04-26T10:21:03.302Z,14.40
2019-04-26T10:23:29.783Z,14.30
2019-04-26T10:25:56.625Z,14.30
2019-04-26T10:28:23.200Z,14.30
2019-04-26T10:30:50.145Z,14.30
2019-04-26T10:33:16.621Z,14.90
2019-04-26T10:35:43.267Z,14.70
2019-04-26T10:38:09.848Z,14.90
2019-04-26T10:40:36.492Z,14.90
2019-04-26T10:43:03.786Z,15.50
2019-04-26T10:45:30.336Z,14.90
2019-04-26T10:47:56.883Z,15.50
2019-04-26T10:50:23.465Z,15.50
2019-04-26T10:53:00.955Z,15.80
2019-04-26T10:55:29.441Z,16.90
2019-04-26T10:57:58.120Z,17.60
2019-04-26T11:00:35.824Z,17.60
2019-04-26T11:03:04.628Z,17.30
2019-04-26T11:05:31.342Z,17.30
2019-04-26T11:07:57.798Z,17.60
2019-04-26T11:10:24.695Z,17.70
2019-04-26T11:12:51.237Z,17.70
2019-04-26T11:15:18.408Z,18.10
2019-04-26T11:17:46.089Z,18.00
2019-04-26T11:20:13.285Z,18.10
2019-04-26T11:22:39.831Z,17.60
2019-04-26T11:25:07.189Z,16.90
2019-04-26T11:27:33.864Z,17.40
2019-04-26T11:30:11.159Z,17.50
2019-04-26T11:32:28.593Z,18.00
2019-04-26T11:34:58.740Z,17.80
2019-04-26T11:37:23.423Z,17.60
2019-04-26T11:39:49.897Z,17.50
2019-04-26T11:42:16.610Z,16.90
2019-04-26T11:44:44.745Z,17.00
2019-04-26T11:47:11.300Z,17.50
2019-04-26T11:49:41.501Z,17.40
2019-04-26T11:52:06.251Z,17.20
2019-04-26T11:54:32.697Z,18.10
2019-04-26T11:56:59.177Z,18.40
2019-04-26T11:59:27.042Z,18.00
2019-04-26T12:01:54.225Z,17.60
2019-04-26T12:04:22.576Z,18.00
2019-04-26T12:06:54.225Z,17.20
2019-04-26T12:09:22.949Z,18.00
2019-04-26T12:12:03.515Z,17.70
2019-04-26T12:14:20.510Z,17.30
2019-04-26T12:16:49.324Z,18.10
2019-04-26T12:19:18.191Z,18.10
2019-04-26T12:21:43.261Z,18.20
2019-04-26T12:24:09.732Z,18.60
2019-04-26T12:26:42.672Z,18.10
2019-04-26T12:29:04.849Z,17.80
2019-04-26T12:31:31.191Z,17.60
2019-04-26T12:33:57.569Z,17.20
2019-04-26T12:36:24.210Z,17.50
2019-04-26T12:38:50.683Z,17.40
2019-04-26T12:41:20.769Z,17.30
2019-04-26T12:43:45.616Z,17.30
2019-04-26T12:46:27.277Z,18.20
2019-04-26T12:48:51.552Z,18.70
2019-04-26T12:51:18.100Z,18.90
2019-04-26T12:53:44.570Z,19.70
2019-04-26T12:56:11.119Z,19.20
2019-04-26T12:58:37.524Z,19.10
2019-04-26T13:01:07.853Z,19.20
2019-04-26T13:03:34.351Z,19.20
2019-04-26T13:06:00.824Z,19.30
2019-04-26T13:08:27.258Z,19.30
2019-04-26T13:10:58.848Z,19.50
2019-04-26T13:13:30.176Z,19.80
2019-04-26T13:16:01.512Z,19.50
2019-04-26T13:18:28.266Z,20.30
2019-04-26T13:20:58.564Z,20.50
2019-04-26T13:23:25.302Z,20.60
2019-04-26T13:25:51.457Z,21.10
2019-04-26T13:28:20.266Z,20.70
2019-04-26T13:30:46.676Z,19.70
2019-04-26T13:33:13.121Z,19.60
2019-04-26T13:35:41.319Z,19.30
2019-04-26T13:38:08.616Z,18.80
2019-04-26T13:40:36.339Z,18.70
2019-04-26T13:43:03.133Z,19.30
2019-04-26T13:45:34.403Z,19.50
2019-04-26T13:48:19.328Z,19.70
2019-04-26T13:51:01.361Z,20.20
2019-04-26T13:53:27.957Z,20.30
2019-04-26T13:55:54.406Z,19.50
2019-04-26T13:58:25.364Z,19.30
2019-04-26T14:00:49.531Z,18.80
2019-04-26T14:03:15.908Z,18.80
2019-04-26T14:05:42.467Z,19.60
2019-04-26T14:08:08.940Z,19.50
2019-04-26T14:10:35.584Z,19.50
2019-04-26T14:13:02.620Z,19.50
2019-04-26T14:15:29.464Z,19.90
2019-04-26T14:17:56.148Z,19.60
2019-04-26T14:20:23.421Z,20.20
2019-04-26T14:22:58.666Z,20.50
2019-04-26T14:25:30.625Z,21.30
2019-04-26T14:27:57.277Z,21.50
2019-04-26T14:30:24.022Z,21.40
2019-04-26T14:32:53.293Z,21.30
2019-04-26T14:35:18.969Z,20.60
2019-04-26T14:37:49.696Z,21.00
2019-04-26T14:40:17.401Z,22.30
2019-04-26T14:42:46.827Z,22.40
2019-04-26T14:45:22.836Z,21.70
2019-04-26T14:47:47.147Z,21.70
2019-04-26T14:50:13.866Z,21.50
2019-04-26T14:52:35.929Z,20.50
2019-04-26T14:55:05.940Z,20.60
2019-04-26T14:57:33.946Z,21.00
2019-04-26T15:00:00.924Z,21.40
2019-04-26T15:05:38.242Z,20.50
2019-04-26T15:08:09.723Z,20.20
2019-04-26T15:10:43.973Z,20.10
2019-04-26T15:13:14.866Z,19.80
2019-04-26T15:15:34.555Z,20.20
2019-04-26T15:18:02.945Z,20.30
2019-04-26T15:20:29.586Z,20.30
2019-04-26T15:22:56.058Z,21.00
2019-04-26T15:25:22.425Z,20.70
2019-04-26T15:27:49.024Z,20.30
2019-04-26T15:30:15.756Z,20.40
2019-04-26T15:32:42.690Z,20.10
2019-04-26T15:35:09.272Z,20.10
2019-04-26T15:37:35.849Z,20.00
2019-04-26T15:40:08.492Z,19.30
2019-04-26T15:42:39.852Z,19.60
2019-04-26T15:45:25.708Z,18.80
2019-04-26T15:47:54.194Z,18.60
2019-04-26T15:50:22.648Z,18.30
2019-04-26T15:52:49.119Z,18.00
2019-04-26T15:55:15.677Z,18.60
2019-04-26T15:57:43.309Z,18.70
2019-04-26T16:00:10.436Z,19.60
2019-04-26T16:02:36.903Z,19.80
2019-04-26T16:05:05.557Z,19.30
2019-04-26T16:07:33.002Z,19.40
2019-04-26T16:10:00.783Z,19.30
2019-04-26T16:12:27.353Z,19.40
2019-04-26T16:14:54.091Z,19.60
2019-04-26T16:17:20.799Z,19.50
2019-04-26T16:19:47.259Z,19.20
2019-04-26T16:22:13.714Z,19.40
2019-04-26T16:24:40.183Z,19.20
2019-04-26T16:27:06.632Z,18.90
2019-04-26T16:29:42.465Z,19.20
2019-04-26T16:32:12.432Z,18.90
2019-04-26T16:34:47.607Z,18.80
2019-04-26T16:37:14.969Z,18.60
2019-04-26T16:39:40.681Z,18.30
2019-04-26T16:42:07.682Z,18.30
2019-04-26T16:44:34.413Z,18.30
2019-04-26T16:47:03.650Z,18.10
2019-04-26T16:49:29.216Z,18.20
2019-04-26T16:52:01.942Z,18.00
2019-04-26T16:54:26.613Z,18.20
2019-04-26T16:56:52.662Z,18.00
2019-04-26T16:59:24.053Z,18.10
2019-04-26T17:01:47.973Z,17.80
2019-04-26T17:04:19.835Z,17.60
2019-04-26T17:06:44.750Z,17.60
2019-04-26T17:09:11.025Z,17.20
2019-04-26T17:11:41.247Z,17.30
2019-04-26T17:14:10.067Z,17.30
2019-04-26T17:16:38.083Z,16.90
2019-04-26T17:19:03.201Z,17.00
2019-04-26T17:21:32.786Z,16.90
2019-04-26T17:24:18.681Z,17.10
2019-04-26T17:26:47.128Z,17.10
2019-04-26T17:29:13.613Z,17.20
2019-04-26T17:31:40.071Z,17.20
2019-04-26T17:34:06.760Z,17.20
2019-04-26T17:36:34.538Z,17.40
2019-04-26T17:39:01.519Z,16.80
2019-04-26T17:41:27.877Z,16.60
2019-04-26T17:44:06.310Z,16.40
2019-04-26T17:46:22.815Z,16.40
2019-04-26T17:48:50.644Z,16.30
2019-04-26T17:51:19.363Z,16.40
2019-04-26T17:53:47.962Z,16.50
2019-04-26T17:56:14.400Z,16.30
2019-04-26T17:58:51.543Z,16.80
2019-04-26T18:01:09.494Z,16.90
2019-04-26T18:03:36.385Z,17.30
2019-04-26T18:06:03.754Z,17.10
2019-04-26T18:08:40.679Z,16.90
2019-04-26T18:10:58.697Z,16.80
2019-04-26T18:13:25.153Z,16.70
2019-04-26T18:15:52.835Z,16.80
2019-04-26T18:18:24.460Z,16.70
2019-04-26T18:21:12.999Z,16.80
2019-04-26T18:23:37.831Z,16.90
2019-04-26T18:26:04.513Z,16.60
2019-04-26T18:28:31.177Z,16.40
2019-04-26T18:30:58.082Z,16.40
2019-04-26T18:33:26.082Z,16.30
2019-04-26T18:35:55.703Z,16.30
2019-04-26T18:38:22.867Z,16.30
2019-04-26T18:41:00.752Z,16.10
2019-04-26T18:43:23.870Z,15.60
2019-04-26T18:45:48.178Z,15.70
2019-04-26T18:48:14.787Z,15.80
2019-04-26T18:50:41.247Z,15.70
2019-04-26T18:53:13.933Z,15.20
2019-04-26T18:55:41.064Z,15.10
2019-04-26T18:58:07.515Z,15.10
2019-04-26T19:00:36.030Z,14.90
2019-04-26T19:03:03.392Z,14.70
2019-04-26T19:05:30.279Z,14.50
2019-04-26T19:07:56.828Z,14.70
2019-04-26T19:10:25.807Z,15.10
2019-04-26T19:12:52.655Z,14.90
2019-04-26T19:15:25.500Z,14.60
2019-04-26T19:18:00.269Z,14.60
2019-04-26T19:23:29.041Z,14.10
2019-04-26T19:25:53.713Z,14.10
2019-04-26T19:28:20.272Z,13.90
2019-04-26T19:30:50.757Z,14.00
2019-04-26T19:33:16.704Z,14.10
2019-04-26T19:35:47.230Z,13.90
2019-04-26T19:38:14.733Z,14.00
2019-04-26T19:40:46.481Z,13.50
2019-04-26T19:43:09.419Z,13.50
2019-04-26T19:45:47.015Z,13.90
2019-04-26T19:48:20.432Z,13.90
2019-04-26T19:50:50.272Z,13.50
2019-04-26T19:53:24.950Z,13.50
2019-04-26T19:55:59.552Z,13.50
2019-04-26T19:58:28.048Z,13.40
2019-04-26T20:00:54.622Z,13.50
2019-04-26T20:03:21.095Z,13.60
2019-04-26T20:05:47.647Z,13.50
2019-04-26T20:08:14.335Z,13.50
2019-04-26T20:10:45.417Z,13.40
2019-04-26T20:13:15.184Z,13.90
2019-04-26T20:15:37.736Z,13.80
2019-04-26T20:18:04.449Z,13.70
2019-04-26T20:20:32.845Z,13.80
2019-04-26T20:22:59.392Z,13.80
2019-04-26T20:25:29.950Z,13.70
2019-04-26T20:27:59.844Z,13.80
2019-04-26T20:30:42.847Z,13.50
2019-04-26T20:33:09.220Z,13.60
2019-04-26T20:35:36.025Z,13.40
2019-04-26T20:38:04.789Z,13.30
2019-04-26T20:40:31.651Z,13.20
2019-04-26T20:43:03.275Z,13.40
2019-04-26T20:45:38.941Z,13.40
2019-04-26T20:47:55.798Z,13.30
2019-04-26T20:50:22.415Z,13.40
2019-04-26T20:52:48.892Z,13.30
2019-04-26T20:55:15.452Z,12.80
2019-04-26T20:57:44.543Z,13.00
2019-04-26T21:00:12.593Z,13.00
2019-04-26T21:02:39.692Z,12.90
2019-04-26T21:05:11.222Z,12.90
2019-04-26T21:07:34.633Z,12.80
2019-04-26T21:10:01.188Z,12.70
2019-04-26T21:12:27.840Z,12.80
2019-04-26T21:14:54.430Z,12.90
2019-04-26T21:17:24.161Z,12.80
2019-04-26T21:19:53.932Z,13.00
2019-04-26T21:22:18.330Z,12.80
2019-04-26T21:24:50.810Z,12.70
2019-04-26T21:27:18.571Z,12.40
2019-04-26T21:30:03.649Z,12.90
2019-04-26T21:32:51.424Z,12.60
2019-04-26T21:35:25.084Z,12.50
2019-04-26T21:38:08.150Z,12.50
2019-04-26T21:40:39.295Z,12.40
2019-04-26T21:43:05.659Z,12.40
2019-04-26T21:45:33.885Z,12.40
2019-04-26T21:48:02.732Z,12.30
2019-04-26T21:50:29.122Z,12.40
2019-04-26T21:52:58.593Z,12.40
2019-04-26T21:55:26.593Z,12.40
2019-04-26T21:57:53.887Z,12.50
2019-04-26T22:00:39.472Z,12.50
2019-04-26T22:03:07.939Z,12.60
2019-04-26T22:05:35.324Z,12.50
2019-04-26T22:08:03.437Z,12.50
2019-04-26T22:10:32.942Z,12.10
2019-04-26T22:13:01.442Z,12.50
2019-04-26T22:15:35.099Z,12.30
2019-04-26T22:18:00.801Z,12.50
2019-04-26T22:20:29.256Z,12.40
2019-04-26T22:23:16.524Z,12.60
2019-04-26T22:25:44.832Z,12.40
2019-04-26T22:28:12.986Z,12.60
2019-04-26T22:30:39.775Z,12.30
2019-04-26T22:33:06.460Z,12.60
2019-04-26T22:35:33.023Z,12.60
2019-04-26T22:37:59.598Z,12.50
2019-04-26T22:40:26.374Z,12.40
2019-04-26T22:42:54.831Z,12.50
2019-04-26T22:45:23.545Z,12.50
2019-04-26T22:47:55.179Z,12.50
2019-04-26T22:50:22.288Z,12.50
2019-04-26T22:52:51.421Z,12.50
2019-04-26T22:55:24.610Z,12.70
2019-04-26T22:57:49.445Z,12.30
2019-04-26T23:00:20.082Z,12.50
2019-04-26T23:02:45.724Z,13.00
2019-04-26T23:05:13.918Z,12.70
2019-04-26T23:07:40.572Z,12.80
2019-04-26T23:10:08.950Z,13.00
2019-04-26T23:12:54.041Z,12.90
2019-04-26T23:15:30.058Z,12.90
2019-04-26T23:18:03.601Z,12.90
2019-04-26T23:20:34.418Z,12.80
2019-04-26T23:23:04.326Z,12.80
2019-04-26T23:25:31.241Z,12.60
2019-04-26T23:27:58.356Z,12.50
2019-04-26T23:30:27.628Z,12.60
2019-04-26T23:32:53.341Z,12.50
2019-04-26T23:35:19.854Z,12.30
2019-04-26T23:37:46.436Z,12.30
2019-04-26T23:40:13.086Z,12.30
2019-04-26T23:42:39.671Z,12.60
2019-04-26T23:45:10.656Z,12.30
2019-04-26T23:47:37.372Z,12.50
2019-04-26T23:50:05.348Z,12.30
2019-04-26T23:52:33.254Z,12.30
2019-04-26T23:54:59.879Z,12.40
2019-04-26T23:57:27.298Z,12.40
2019-04-26T23:59:56.398Z,12.20
